sensor_id;sensor_type;location;lat;lon;timestamp;temperature;humidity
49503;DHT22;35409;48.776;9.204;2023-07-20T00:39:14;19.20;81.90
49503;DHT22;35409;48.776;9.204;2023-07-20T00:41:40;19.20;82.50
49503;DHT22;35409;48.776;9.204;2023-07-20T00:44:06;19.10;82.90
49503;DHT22;35409;48.776;9.204;2023-07-20T00:46:32;18.90;83.20
49503;DHT22;35409;48.776;9.204;2023-07-20T00:48:58;18.90;83.40
49503;DHT22;35409;48.776;9.204;2023-07-20T00:51:25;18.80;83.40
49503;DHT22;35409;48.776;9.204;2023-07-20T00:53:51;18.70;83.60
49503;DHT22;35409;48.776;9.204;2023-07-20T00:56:16;18.80;83.60
49503;DHT22;35409;48.776;9.204;2023-07-20T00:58:42;18.70;83.70
49503;DHT22;35409;48.776;9.204;2023-07-20T01:01:08;18.70;84.10
49503;DHT22;35409;48.776;9.204;2023-07-20T01:03:34;18.70;84.00
49503;DHT22;35409;48.776;9.204;2023-07-20T01:06:24;18.70;84.30
49503;DHT22;35409;48.776;9.204;2023-07-20T01:09:12;18.80;84.10
49503;DHT22;35409;48.776;9.204;2023-07-20T01:14:49;18.70;84.40
49503;DHT22;35409;48.776;9.204;2023-07-20T01:17:15;18.70;84.60
49503;DHT22;35409;48.776;9.204;2023-07-20T01:19:40;18.60;84.90
49503;DHT22;35409;48.776;9.204;2023-07-20T01:33:16;18.30;86.10
49503;DHT22;35409;48.776;9.204;2023-07-20T01:35:43;18.30;86.30
49503;DHT22;35409;48.776;9.204;2023-07-20T01:38:11;18.20;86.60
49503;DHT22;35409;48.776;9.204;2023-07-20T01:40:38;18.20;86.90
49503;DHT22;35409;48.776;9.204;2023-07-20T01:43:04;18.10;87.00
49503;DHT22;35409;48.776;9.204;2023-07-20T01:45:30;18.10;87.30
49503;DHT22;35409;48.776;9.204;2023-07-20T01:47:56;18.00;87.40
49503;DHT22;35409;48.776;9.204;2023-07-20T01:50:21;18.00;88.00
49503;DHT22;35409;48.776;9.204;2023-07-20T01:52:47;18.00;88.20
49503;DHT22;35409;48.776;9.204;2023-07-20T01:55:13;18.00;88.40
49503;DHT22;35409;48.776;9.204;2023-07-20T01:57:39;17.90;88.70
49503;DHT22;35409;48.776;9.204;2023-07-20T02:00:05;17.80;88.90
49503;DHT22;35409;48.776;9.204;2023-07-20T02:02:31;17.90;88.80
49503;DHT22;35409;48.776;9.204;2023-07-20T02:04:56;17.90;88.90
49503;DHT22;35409;48.776;9.204;2023-07-20T02:07:22;17.80;89.80
49503;DHT22;35409;48.776;9.204;2023-07-20T02:09:48;17.80;89.50
49503;DHT22;35409;48.776;9.204;2023-07-20T02:12:13;17.70;89.60
49503;DHT22;35409;48.776;9.204;2023-07-20T02:14:39;17.70;90.00
49503;DHT22;35409;48.776;9.204;2023-07-20T02:17:05;17.60;90.30
49503;DHT22;35409;48.776;9.204;2023-07-20T02:19:30;17.50;90.40
49503;DHT22;35409;48.776;9.204;2023-07-20T02:21:56;17.50;90.50
49503;DHT22;35409;48.776;9.204;2023-07-20T02:24:22;17.40;90.70
49503;DHT22;35409;48.776;9.204;2023-07-20T02:26:48;17.40;90.80
49503;DHT22;35409;48.776;9.204;2023-07-20T02:29:14;17.40;90.90
49503;DHT22;35409;48.776;9.204;2023-07-20T02:31:39;17.30;91.00
49503;DHT22;35409;48.776;9.204;2023-07-20T02:34:08;17.30;91.10
49503;DHT22;35409;48.776;9.204;2023-07-20T02:36:35;17.20;91.10
49503;DHT22;35409;48.776;9.204;2023-07-20T02:39:01;17.20;91.30
49503;DHT22;35409;48.776;9.204;2023-07-20T02:41:30;17.10;91.40
49503;DHT22;35409;48.776;9.204;2023-07-20T02:43:55;17.10;91.60
49503;DHT22;35409;48.776;9.204;2023-07-20T02:46:22;17.00;91.70
49503;DHT22;35409;48.776;9.204;2023-07-20T02:48:47;17.00;91.80
49503;DHT22;35409;48.776;9.204;2023-07-20T02:51:13;17.00;91.90
49503;DHT22;35409;48.776;9.204;2023-07-20T02:53:39;17.00;92.00
49503;DHT22;35409;48.776;9.204;2023-07-20T02:56:04;16.90;92.20
49503;DHT22;35409;48.776;9.204;2023-07-20T02:58:30;17.00;96.70
49503;DHT22;35409;48.776;9.204;2023-07-20T03:00:56;16.90;98.50
49503;DHT22;35409;48.776;9.204;2023-07-20T03:03:22;16.90;99.30
49503;DHT22;35409;48.776;9.204;2023-07-20T03:05:47;16.90;99.90
49503;DHT22;35409;48.776;9.204;2023-07-20T03:08:19;16.90;99.70
49503;DHT22;35409;48.776;9.204;2023-07-20T03:10:45;16.90;99.90
49503;DHT22;35409;48.776;9.204;2023-07-20T03:13:11;16.80;99.90
49503;DHT22;35409;48.776;9.204;2023-07-20T03:15:36;16.80;99.90
49503;DHT22;35409;48.776;9.204;2023-07-20T03:18:02;16.80;99.90
49503;DHT22;35409;48.776;9.204;2023-07-20T03:20:29;16.80;99.90
49503;DHT22;35409;48.776;9.204;2023-07-20T03:22:55;16.80;99.90
49503;DHT22;35409;48.776;9.204;2023-07-20T03:25:20;16.80;99.90
49503;DHT22;35409;48.776;9.204;2023-07-20T03:27:46;16.70;99.90
49503;DHT22;35409;48.776;9.204;2023-07-20T03:30:12;16.70;99.90
49503;DHT22;35409;48.776;9.204;2023-07-20T03:32:37;16.80;99.90
49503;DHT22;35409;48.776;9.204;2023-07-20T03:35:03;16.70;99.90
49503;DHT22;35409;48.776;9.204;2023-07-20T03:37:30;16.70;99.90
49503;DHT22;35409;48.776;9.204;2023-07-20T03:39:55;16.80;99.90
49503;DHT22;35409;48.776;9.204;2023-07-20T03:42:21;16.70;99.90
49503;DHT22;35409;48.776;9.204;2023-07-20T03:44:46;16.70;99.90
49503;DHT22;35409;48.776;9.204;2023-07-20T03:47:12;16.70;99.90
49503;DHT22;35409;48.776;9.204;2023-07-20T03:49:37;16.70;99.90
49503;DHT22;35409;48.776;9.204;2023-07-20T03:52:03;16.70;99.90
49503;DHT22;35409;48.776;9.204;2023-07-20T03:54:29;16.70;99.90
49503;DHT22;35409;48.776;9.204;2023-07-20T03:56:55;16.70;99.90
49503;DHT22;35409;48.776;9.204;2023-07-20T03:59:21;16.70;99.90
49503;DHT22;35409;48.776;9.204;2023-07-20T04:01:46;16.70;99.90
49503;DHT22;35409;48.776;9.204;2023-07-20T04:04:13;16.80;99.90
49503;DHT22;35409;48.776;9.204;2023-07-20T04:06:38;16.70;99.90
49503;DHT22;35409;48.776;9.204;2023-07-20T04:09:04;16.80;99.90
49503;DHT22;35409;48.776;9.204;2023-07-20T04:11:33;16.80;99.90
49503;DHT22;35409;48.776;9.204;2023-07-20T04:13:58;16.80;99.90
49503;DHT22;35409;48.776;9.204;2023-07-20T04:16:24;16.80;99.90
49503;DHT22;35409;48.776;9.204;2023-07-20T04:18:49;16.90;99.90
49503;DHT22;35409;48.776;9.204;2023-07-20T04:21:15;17.00;99.90
49503;DHT22;35409;48.776;9.204;2023-07-20T04:23:41;17.00;99.90
49503;DHT22;35409;48.776;9.204;2023-07-20T04:26:07;17.10;99.90
49503;DHT22;35409;48.776;9.204;2023-07-20T04:28:33;17.10;99.90
49503;DHT22;35409;48.776;9.204;2023-07-20T04:31:12;17.20;99.90
49503;DHT22;35409;48.776;9.204;2023-07-20T04:33:39;17.30;99.90
49503;DHT22;35409;48.776;9.204;2023-07-20T04:36:04;17.40;99.90
49503;DHT22;35409;48.776;9.204;2023-07-20T04:38:30;17.40;99.90
49503;DHT22;35409;48.776;9.204;2023-07-20T04:40:56;17.60;99.90
49503;DHT22;35409;48.776;9.204;2023-07-20T04:43:22;17.60;99.90
49503;DHT22;35409;48.776;9.204;2023-07-20T04:45:47;17.70;99.90
49503;DHT22;35409;48.776;9.204;2023-07-20T04:48:15;17.80;99.90
49503;DHT22;35409;48.776;9.204;2023-07-20T04:50:44;17.80;99.90
49503;DHT22;35409;48.776;9.204;2023-07-20T04:53:11;18.00;99.90
49503;DHT22;35409;48.776;9.204;2023-07-20T04:55:38;18.00;99.90
49503;DHT22;35409;48.776;9.204;2023-07-20T04:58:04;18.20;99.90
49503;DHT22;35409;48.776;9.204;2023-07-20T05:00:31;18.20;99.90
49503;DHT22;35409;48.776;9.204;2023-07-20T05:02:57;18.40;99.90
49503;DHT22;35409;48.776;9.204;2023-07-20T05:05:23;18.50;99.90
49503;DHT22;35409;48.776;9.204;2023-07-20T05:07:48;18.60;99.90
49503;DHT22;35409;48.776;9.204;2023-07-20T05:10:14;18.70;99.90
49503;DHT22;35409;48.776;9.204;2023-07-20T05:12:39;18.80;99.90
49503;DHT22;35409;48.776;9.204;2023-07-20T05:15:05;19.00;99.90
49503;DHT22;35409;48.776;9.204;2023-07-20T05:17:31;19.00;99.90
49503;DHT22;35409;48.776;9.204;2023-07-20T05:19:57;19.20;99.90
49503;DHT22;35409;48.776;9.204;2023-07-20T05:22:22;19.20;99.90
49503;DHT22;35409;48.776;9.204;2023-07-20T05:24:50;19.30;99.90
49503;DHT22;35409;48.776;9.204;2023-07-20T05:27:15;19.40;99.90
49503;DHT22;35409;48.776;9.204;2023-07-20T05:29:45;19.50;99.90
49503;DHT22;35409;48.776;9.204;2023-07-20T05:32:11;19.60;99.90
49503;DHT22;35409;48.776;9.204;2023-07-20T05:34:36;19.60;99.90
49503;DHT22;35409;48.776;9.204;2023-07-20T05:37:02;19.70;99.90
49503;DHT22;35409;48.776;9.204;2023-07-20T05:39:27;19.80;99.90
49503;DHT22;35409;48.776;9.204;2023-07-20T05:41:53;19.80;99.90
49503;DHT22;35409;48.776;9.204;2023-07-20T05:44:19;19.90;99.90
49503;DHT22;35409;48.776;9.204;2023-07-20T05:46:44;19.90;99.90
49503;DHT22;35409;48.776;9.204;2023-07-20T05:49:10;19.90;99.90
49503;DHT22;35409;48.776;9.204;2023-07-20T05:51:35;19.90;99.90
49503;DHT22;35409;48.776;9.204;2023-07-20T05:54:01;20.00;99.90
49503;DHT22;35409;48.776;9.204;2023-07-20T05:56:27;20.00;99.90
49503;DHT22;35409;48.776;9.204;2023-07-20T05:58:52;20.00;99.90
49503;DHT22;35409;48.776;9.204;2023-07-20T06:01:18;20.00;99.90
49503;DHT22;35409;48.776;9.204;2023-07-20T06:03:44;20.10;99.90
49503;DHT22;35409;48.776;9.204;2023-07-20T06:06:10;20.20;99.90
49503;DHT22;35409;48.776;9.204;2023-07-20T06:08:37;20.30;99.90
49503;DHT22;35409;48.776;9.204;2023-07-20T06:11:03;20.30;99.90
49503;DHT22;35409;48.776;9.204;2023-07-20T06:13:29;20.40;99.90
49503;DHT22;35409;48.776;9.204;2023-07-20T06:15:54;20.50;99.90
49503;DHT22;35409;48.776;9.204;2023-07-20T06:18:24;20.60;99.90
49503;DHT22;35409;48.776;9.204;2023-07-20T06:20:51;20.60;99.90
49503;DHT22;35409;48.776;9.204;2023-07-20T06:23:18;20.60;99.90
49503;DHT22;35409;48.776;9.204;2023-07-20T06:25:44;20.60;99.90
49503;DHT22;35409;48.776;9.204;2023-07-20T06:28:09;20.60;99.90
49503;DHT22;35409;48.776;9.204;2023-07-20T06:30:35;20.50;99.90
49503;DHT22;35409;48.776;9.204;2023-07-20T06:33:00;20.50;99.90
49503;DHT22;35409;48.776;9.204;2023-07-20T06:35:26;20.50;99.90
49503;DHT22;35409;48.776;9.204;2023-07-20T06:37:52;20.60;99.90
49503;DHT22;35409;48.776;9.204;2023-07-20T06:40:18;20.40;99.90
49503;DHT22;35409;48.776;9.204;2023-07-20T06:42:43;20.40;99.90
49503;DHT22;35409;48.776;9.204;2023-07-20T06:45:09;20.40;99.90
49503;DHT22;35409;48.776;9.204;2023-07-20T06:47:38;20.50;99.90
49503;DHT22;35409;48.776;9.204;2023-07-20T06:50:06;20.60;99.90
49503;DHT22;35409;48.776;9.204;2023-07-20T06:52:33;20.70;99.90
49503;DHT22;35409;48.776;9.204;2023-07-20T06:54:58;20.90;99.90
49503;DHT22;35409;48.776;9.204;2023-07-20T06:57:24;21.10;99.90
49503;DHT22;35409;48.776;9.204;2023-07-20T06:59:50;21.10;99.90
49503;DHT22;35409;48.776;9.204;2023-07-20T07:02:16;21.30;99.90
49503;DHT22;35409;48.776;9.204;2023-07-20T07:04:42;21.30;99.90
49503;DHT22;35409;48.776;9.204;2023-07-20T07:07:07;21.30;99.90
49503;DHT22;35409;48.776;9.204;2023-07-20T07:09:34;21.30;99.90
49503;DHT22;35409;48.776;9.204;2023-07-20T07:11:59;21.30;99.90
49503;DHT22;35409;48.776;9.204;2023-07-20T07:14:25;21.20;99.90
49503;DHT22;35409;48.776;9.204;2023-07-20T07:16:51;21.30;99.90
49503;DHT22;35409;48.776;9.204;2023-07-20T07:19:16;21.40;99.90
49503;DHT22;35409;48.776;9.204;2023-07-20T07:21:42;21.40;99.90
49503;DHT22;35409;48.776;9.204;2023-07-20T07:24:08;21.50;99.90
49503;DHT22;35409;48.776;9.204;2023-07-20T07:26:36;21.60;99.90
49503;DHT22;35409;48.776;9.204;2023-07-20T07:29:02;21.60;99.90
49503;DHT22;35409;48.776;9.204;2023-07-20T07:31:29;21.60;99.90
49503;DHT22;35409;48.776;9.204;2023-07-20T07:33:56;21.70;99.90
49503;DHT22;35409;48.776;9.204;2023-07-20T07:36:22;21.80;99.90
49503;DHT22;35409;48.776;9.204;2023-07-20T07:38:50;21.90;99.90
49503;DHT22;35409;48.776;9.204;2023-07-20T07:41:15;21.90;99.90
49503;DHT22;35409;48.776;9.204;2023-07-20T07:43:41;22.00;99.90
49503;DHT22;35409;48.776;9.204;2023-07-20T07:46:07;22.10;96.20
49503;DHT22;35409;48.776;9.204;2023-07-20T07:48:32;22.20;95.00
49503;DHT22;35409;48.776;9.204;2023-07-20T07:50:58;22.40;94.40
49503;DHT22;35409;48.776;9.204;2023-07-20T07:53:23;22.40;94.00
49503;DHT22;35409;48.776;9.204;2023-07-20T07:55:51;22.50;93.50
49503;DHT22;35409;48.776;9.204;2023-07-20T07:58:17;22.50;90.30
49503;DHT22;35409;48.776;9.204;2023-07-20T08:00:43;22.60;90.30
49503;DHT22;35409;48.776;9.204;2023-07-20T08:03:10;22.70;89.80
49503;DHT22;35409;48.776;9.204;2023-07-20T08:05:36;22.90;89.30
49503;DHT22;35409;48.776;9.204;2023-07-20T08:08:05;23.20;88.70
49503;DHT22;35409;48.776;9.204;2023-07-20T08:10:31;23.40;88.30
49503;DHT22;35409;48.776;9.204;2023-07-20T08:12:57;23.40;87.70
49503;DHT22;35409;48.776;9.204;2023-07-20T08:15:23;23.50;88.00
49503;DHT22;35409;48.776;9.204;2023-07-20T08:17:48;23.70;87.20
49503;DHT22;35409;48.776;9.204;2023-07-20T08:20:17;23.80;86.00
49503;DHT22;35409;48.776;9.204;2023-07-20T08:22:43;23.80;86.00
49503;DHT22;35409;48.776;9.204;2023-07-20T08:25:09;23.80;84.70
49503;DHT22;35409;48.776;9.204;2023-07-20T08:27:35;23.90;84.50
49503;DHT22;35409;48.776;9.204;2023-07-20T08:30:02;24.00;84.00
49503;DHT22;35409;48.776;9.204;2023-07-20T08:32:28;23.90;84.10
49503;DHT22;35409;48.776;9.204;2023-07-20T08:34:53;23.80;83.70
49503;DHT22;35409;48.776;9.204;2023-07-20T08:37:19;23.80;83.90
49503;DHT22;35409;48.776;9.204;2023-07-20T08:39:45;23.60;84.70
49503;DHT22;35409;48.776;9.204;2023-07-20T08:42:10;23.40;85.40
49503;DHT22;35409;48.776;9.204;2023-07-20T08:44:38;23.30;86.30
49503;DHT22;35409;48.776;9.204;2023-07-20T08:47:06;23.10;86.60
49503;DHT22;35409;48.776;9.204;2023-07-20T08:49:32;22.90;86.00
49503;DHT22;35409;48.776;9.204;2023-07-20T08:51:59;22.80;85.70
49503;DHT22;35409;48.776;9.204;2023-07-20T08:54:30;22.90;85.20
49503;DHT22;35409;48.776;9.204;2023-07-20T08:57:02;22.90;85.00
49503;DHT22;35409;48.776;9.204;2023-07-20T08:59:28;23.10;86.00
49503;DHT22;35409;48.776;9.204;2023-07-20T09:01:56;23.30;84.30
49503;DHT22;35409;48.776;9.204;2023-07-20T09:04:22;23.40;84.00
49503;DHT22;35409;48.776;9.204;2023-07-20T09:06:49;23.40;82.50
49503;DHT22;35409;48.776;9.204;2023-07-20T09:09:15;23.60;82.70
49503;DHT22;35409;48.776;9.204;2023-07-20T09:11:41;23.70;82.90
49503;DHT22;35409;48.776;9.204;2023-07-20T09:14:08;23.80;82.70
49503;DHT22;35409;48.776;9.204;2023-07-20T09:16:54;24.10;81.30
49503;DHT22;35409;48.776;9.204;2023-07-20T09:19:20;24.50;81.00
49503;DHT22;35409;48.776;9.204;2023-07-20T09:21:50;24.60;81.10
49503;DHT22;35409;48.776;9.204;2023-07-20T09:24:18;24.60;80.10
49503;DHT22;35409;48.776;9.204;2023-07-20T09:26:46;24.40;80.20
49503;DHT22;35409;48.776;9.204;2023-07-20T09:29:19;24.30;80.80
49503;DHT22;35409;48.776;9.204;2023-07-20T09:31:59;24.20;80.40
49503;DHT22;35409;48.776;9.204;2023-07-20T09:34:26;24.50;80.60
49503;DHT22;35409;48.776;9.204;2023-07-20T09:36:51;24.80;79.20
49503;DHT22;35409;48.776;9.204;2023-07-20T09:39:17;24.90;79.00
49503;DHT22;35409;48.776;9.204;2023-07-20T09:41:43;24.80;78.90
49503;DHT22;35409;48.776;9.204;2023-07-20T09:44:10;24.60;79.70
49503;DHT22;35409;48.776;9.204;2023-07-20T09:46:47;24.40;79.60
49503;DHT22;35409;48.776;9.204;2023-07-20T09:49:14;24.30;79.00
49503;DHT22;35409;48.776;9.204;2023-07-20T09:51:40;24.20;79.00
49503;DHT22;35409;48.776;9.204;2023-07-20T09:54:06;24.30;78.10
49503;DHT22;35409;48.776;9.204;2023-07-20T09:56:33;24.40;77.70
49503;DHT22;35409;48.776;9.204;2023-07-20T09:58:58;24.50;77.80
49503;DHT22;35409;48.776;9.204;2023-07-20T10:01:25;24.60;77.00
49503;DHT22;35409;48.776;9.204;2023-07-20T10:03:54;24.70;76.80
49503;DHT22;35409;48.776;9.204;2023-07-20T10:06:23;24.70;76.20
49503;DHT22;35409;48.776;9.204;2023-07-20T10:08:53;24.60;76.40
49503;DHT22;35409;48.776;9.204;2023-07-20T10:11:22;24.60;76.50
49503;DHT22;35409;48.776;9.204;2023-07-20T10:13:51;24.50;76.30
49503;DHT22;35409;48.776;9.204;2023-07-20T10:16:24;24.40;76.60
49503;DHT22;35409;48.776;9.204;2023-07-20T10:21:42;24.50;77.20
49503;DHT22;35409;48.776;9.204;2023-07-20T10:24:08;24.60;76.40
49503;DHT22;35409;48.776;9.204;2023-07-20T10:26:35;24.70;74.60
49503;DHT22;35409;48.776;9.204;2023-07-20T10:29:01;24.60;74.30
49503;DHT22;35409;48.776;9.204;2023-07-20T10:31:28;24.60;74.90
49503;DHT22;35409;48.776;9.204;2023-07-20T10:33:57;24.50;74.60
49503;DHT22;35409;48.776;9.204;2023-07-20T10:36:26;24.60;74.00
49503;DHT22;35409;48.776;9.204;2023-07-20T10:38:56;24.80;72.90
49503;DHT22;35409;48.776;9.204;2023-07-20T10:41:48;25.10;73.00
49503;DHT22;35409;48.776;9.204;2023-07-20T10:44:19;25.50;72.70
49503;DHT22;35409;48.776;9.204;2023-07-20T10:46:46;25.60;72.20
49503;DHT22;35409;48.776;9.204;2023-07-20T10:49:13;25.50;73.40
49503;DHT22;35409;48.776;9.204;2023-07-20T10:51:44;25.50;72.40
49503;DHT22;35409;48.776;9.204;2023-07-20T10:56:48;25.80;72.50
49503;DHT22;35409;48.776;9.204;2023-07-20T11:01:50;26.20;70.80
49503;DHT22;35409;48.776;9.204;2023-07-20T11:07:03;26.10;70.00
49503;DHT22;35409;48.776;9.204;2023-07-20T11:09:34;26.10;69.10
49503;DHT22;35409;48.776;9.204;2023-07-20T11:12:13;26.10;69.80
49503;DHT22;35409;48.776;9.204;2023-07-20T11:14:56;26.30;69.50
49503;DHT22;35409;48.776;9.204;2023-07-20T11:17:29;26.20;68.70
49503;DHT22;35409;48.776;9.204;2023-07-20T11:19:56;26.10;68.70
49503;DHT22;35409;48.776;9.204;2023-07-20T11:22:22;26.10;68.10
49503;DHT22;35409;48.776;9.204;2023-07-20T11:24:48;26.20;68.20
49503;DHT22;35409;48.776;9.204;2023-07-20T11:27:16;26.20;68.10
49503;DHT22;35409;48.776;9.204;2023-07-20T11:29:45;26.30;67.60
49503;DHT22;35409;48.776;9.204;2023-07-20T11:32:11;26.30;66.70
49503;DHT22;35409;48.776;9.204;2023-07-20T11:34:36;26.40;68.00
49503;DHT22;35409;48.776;9.204;2023-07-20T11:37:02;26.50;67.40
49503;DHT22;35409;48.776;9.204;2023-07-20T11:39:29;26.30;67.30
49503;DHT22;35409;48.776;9.204;2023-07-20T11:41:55;26.30;67.40
49503;DHT22;35409;48.776;9.204;2023-07-20T11:44:23;26.40;67.20
49503;DHT22;35409;48.776;9.204;2023-07-20T11:47:04;26.40;67.30
49503;DHT22;35409;48.776;9.204;2023-07-20T11:49:34;26.10;67.20
49503;DHT22;35409;48.776;9.204;2023-07-20T11:52:00;25.70;67.50
49503;DHT22;35409;48.776;9.204;2023-07-20T11:54:26;25.30;68.40
49503;DHT22;35409;48.776;9.204;2023-07-20T11:56:55;25.20;67.40
49503;DHT22;35409;48.776;9.204;2023-07-20T11:59:23;25.20;68.00
49503;DHT22;35409;48.776;9.204;2023-07-20T12:01:49;25.40;68.30
49503;DHT22;35409;48.776;9.204;2023-07-20T12:04:15;25.80;67.20
49503;DHT22;35409;48.776;9.204;2023-07-20T12:06:40;26.20;66.40
49503;DHT22;35409;48.776;9.204;2023-07-20T12:09:13;26.50;66.30
49503;DHT22;35409;48.776;9.204;2023-07-20T12:11:39;26.50;66.10
49503;DHT22;35409;48.776;9.204;2023-07-20T12:14:08;26.50;65.20
49503;DHT22;35409;48.776;9.204;2023-07-20T12:16:36;26.50;65.00
49503;DHT22;35409;48.776;9.204;2023-07-20T12:19:11;26.50;65.00
49503;DHT22;35409;48.776;9.204;2023-07-20T12:21:39;26.30;65.10
49503;DHT22;35409;48.776;9.204;2023-07-20T12:24:07;26.60;64.70
49503;DHT22;35409;48.776;9.204;2023-07-20T12:26:34;26.90;64.10
49503;DHT22;35409;48.776;9.204;2023-07-20T12:29:00;26.80;63.50
49503;DHT22;35409;48.776;9.204;2023-07-20T12:31:27;26.40;63.90
49503;DHT22;35409;48.776;9.204;2023-07-20T12:33:53;26.20;64.10
49503;DHT22;35409;48.776;9.204;2023-07-20T12:36:22;26.10;64.70
49503;DHT22;35409;48.776;9.204;2023-07-20T12:38:48;26.40;64.60
49503;DHT22;35409;48.776;9.204;2023-07-20T12:41:14;26.60;64.00
49503;DHT22;35409;48.776;9.204;2023-07-20T12:43:46;26.80;63.70
49503;DHT22;35409;48.776;9.204;2023-07-20T12:46:12;26.80;63.80
49503;DHT22;35409;48.776;9.204;2023-07-20T12:48:40;26.90;65.30
49503;DHT22;35409;48.776;9.204;2023-07-20T12:51:08;27.20;65.00
49503;DHT22;35409;48.776;9.204;2023-07-20T12:53:34;27.30;64.20
49503;DHT22;35409;48.776;9.204;2023-07-20T12:56:00;27.40;64.40
49503;DHT22;35409;48.776;9.204;2023-07-20T12:58:26;27.30;64.10
49503;DHT22;35409;48.776;9.204;2023-07-20T13:00:51;27.40;64.20
49503;DHT22;35409;48.776;9.204;2023-07-20T13:03:17;27.40;63.70
49503;DHT22;35409;48.776;9.204;2023-07-20T13:05:45;27.30;63.10
49503;DHT22;35409;48.776;9.204;2023-07-20T13:08:10;27.20;63.90
49503;DHT22;35409;48.776;9.204;2023-07-20T14:53:07;29.80;91.60
49503;DHT22;35409;48.776;9.204;2023-07-20T14:55:33;30.00;89.10
49503;DHT22;35409;48.776;9.204;2023-07-20T14:57:59;30.10;88.60
49503;DHT22;35409;48.776;9.204;2023-07-20T15:00:25;30.20;87.90
49503;DHT22;35409;48.776;9.204;2023-07-20T15:02:51;30.30;89.10
49503;DHT22;35409;48.776;9.204;2023-07-20T15:05:22;30.20;90.10
49503;DHT22;35409;48.776;9.204;2023-07-20T17:41:45;25.30;58.20
49503;DHT22;35409;48.776;9.204;2023-07-20T17:44:11;25.30;59.10
49503;DHT22;35409;48.776;9.204;2023-07-20T17:46:36;25.20;58.70
49503;DHT22;35409;48.776;9.204;2023-07-20T17:49:02;25.00;59.40
49503;DHT22;35409;48.776;9.204;2023-07-20T17:51:30;25.00;59.20
49503;DHT22;35409;48.776;9.204;2023-07-20T17:53:56;24.80;58.90
49503;DHT22;35409;48.776;9.204;2023-07-20T17:56:21;24.80;59.50
49503;DHT22;35409;48.776;9.204;2023-07-20T17:58:47;24.60;60.30
49503;DHT22;35409;48.776;9.204;2023-07-20T18:01:12;24.60;60.40
49503;DHT22;35409;48.776;9.204;2023-07-20T18:03:38;24.50;60.00
49503;DHT22;35409;48.776;9.204;2023-07-20T18:06:07;24.50;59.50
49503;DHT22;35409;48.776;9.204;2023-07-20T18:08:34;24.40;60.20
49503;DHT22;35409;48.776;9.204;2023-07-20T18:11:04;24.30;60.00
49503;DHT22;35409;48.776;9.204;2023-07-20T18:13:30;24.20;60.10
49503;DHT22;35409;48.776;9.204;2023-07-20T18:15:56;24.20;60.20
49503;DHT22;35409;48.776;9.204;2023-07-20T18:18:22;24.10;60.00
49503;DHT22;35409;48.776;9.204;2023-07-20T18:20:48;24.00;60.80
49503;DHT22;35409;48.776;9.204;2023-07-20T18:23:13;23.90;60.70
49503;DHT22;35409;48.776;9.204;2023-07-20T18:25:42;23.80;60.60
49503;DHT22;35409;48.776;9.204;2023-07-20T18:28:07;23.70;60.60
49503;DHT22;35409;48.776;9.204;2023-07-20T18:30:33;23.70;60.90
49503;DHT22;35409;48.776;9.204;2023-07-20T18:33:00;23.60;60.80
49503;DHT22;35409;48.776;9.204;2023-07-20T18:35:26;23.50;61.00
49503;DHT22;35409;48.776;9.204;2023-07-20T18:37:52;23.40;61.10
49503;DHT22;35409;48.776;9.204;2023-07-20T18:40:17;23.30;61.10
49503;DHT22;35409;48.776;9.204;2023-07-20T18:42:43;23.30;61.60
49503;DHT22;35409;48.776;9.204;2023-07-20T18:45:09;23.20;61.60
49503;DHT22;35409;48.776;9.204;2023-07-20T18:47:35;23.20;61.80
49503;DHT22;35409;48.776;9.204;2023-07-20T18:50:01;23.10;61.80
49503;DHT22;35409;48.776;9.204;2023-07-20T18:52:26;23.00;61.90
49503;DHT22;35409;48.776;9.204;2023-07-20T18:54:52;23.00;61.90
49503;DHT22;35409;48.776;9.204;2023-07-20T18:57:17;22.90;61.90
49503;DHT22;35409;48.776;9.204;2023-07-20T18:59:43;22.80;62.20
49503;DHT22;35409;48.776;9.204;2023-07-20T19:02:08;22.70;62.00
49503;DHT22;35409;48.776;9.204;2023-07-20T19:04:34;22.70;62.30
49503;DHT22;35409;48.776;9.204;2023-07-20T19:07:01;22.60;62.40
49503;DHT22;35409;48.776;9.204;2023-07-20T19:09:26;22.50;62.80
49503;DHT22;35409;48.776;9.204;2023-07-20T19:11:52;22.50;62.50
49503;DHT22;35409;48.776;9.204;2023-07-20T19:14:17;22.40;62.70
49503;DHT22;35409;48.776;9.204;2023-07-20T19:16:44;22.40;63.30
49503;DHT22;35409;48.776;9.204;2023-07-20T19:19:10;22.30;63.20
49503;DHT22;35409;48.776;9.204;2023-07-20T19:21:36;22.30;63.30
49503;DHT22;35409;48.776;9.204;2023-07-20T19:24:01;22.20;63.30
49503;DHT22;35409;48.776;9.204;2023-07-20T19:26:27;22.20;63.30
49503;DHT22;35409;48.776;9.204;2023-07-20T19:28:53;22.10;63.70
49503;DHT22;35409;48.776;9.204;2023-07-20T19:31:19;22.10;64.10
49503;DHT22;35409;48.776;9.204;2023-07-20T19:33:44;22.00;64.60
49503;DHT22;35409;48.776;9.204;2023-07-20T19:36:10;22.00;64.70
49503;DHT22;35409;48.776;9.204;2023-07-20T19:38:35;21.90;65.00
49503;DHT22;35409;48.776;9.204;2023-07-20T19:41:01;21.90;65.90
49503;DHT22;35409;48.776;9.204;2023-07-20T19:43:29;21.80;66.80
49503;DHT22;35409;48.776;9.204;2023-07-20T20:10:35;20.90;95.30
49503;DHT22;35409;48.776;9.204;2023-07-20T20:13:05;20.90;94.70
49503;DHT22;35409;48.776;9.204;2023-07-20T20:15:31;20.90;75.00
49503;DHT22;35409;48.776;9.204;2023-07-20T20:17:57;20.70;74.40
49503;DHT22;35409;48.776;9.204;2023-07-20T20:45:49;19.90;96.60
49503;DHT22;35409;48.776;9.204;2023-07-20T20:48:15;20.00;96.90
49503;DHT22;35409;48.776;9.204;2023-07-20T20:50:40;19.90;96.30
49503;DHT22;35409;48.776;9.204;2023-07-20T21:29:57;19.60;71.40
49503;DHT22;35409;48.776;9.204;2023-07-20T21:32:24;19.50;72.60
49503;DHT22;35409;48.776;9.204;2023-07-20T21:34:50;19.40;72.30
49503;DHT22;35409;48.776;9.204;2023-07-20T21:37:15;19.40;72.50
49503;DHT22;35409;48.776;9.204;2023-07-20T21:39:41;19.30;72.70
49503;DHT22;35409;48.776;9.204;2023-07-20T21:42:07;19.30;73.10
49503;DHT22;35409;48.776;9.204;2023-07-20T21:44:33;19.20;73.20
49503;DHT22;35409;48.776;9.204;2023-07-20T21:46:58;19.20;73.20
49503;DHT22;35409;48.776;9.204;2023-07-20T21:49:24;19.10;73.30
49503;DHT22;35409;48.776;9.204;2023-07-20T21:51:49;19.10;73.40
49503;DHT22;35409;48.776;9.204;2023-07-20T21:54:15;19.10;73.50
49503;DHT22;35409;48.776;9.204;2023-07-20T21:56:41;19.10;73.50
49503;DHT22;35409;48.776;9.204;2023-07-20T21:59:06;19.10;73.50
49503;DHT22;35409;48.776;9.204;2023-07-20T22:01:32;19.00;73.40
49503;DHT22;35409;48.776;9.204;2023-07-20T22:03:57;19.00;73.50
49503;DHT22;35409;48.776;9.204;2023-07-20T22:06:23;18.90;73.60
49503;DHT22;35409;48.776;9.204;2023-07-20T22:08:48;18.90;73.90
49503;DHT22;35409;48.776;9.204;2023-07-20T22:11:14;18.80;74.10
49503;DHT22;35409;48.776;9.204;2023-07-20T22:13:40;18.80;74.40